Time;durP1;ratioP1;P1;durP2;ratioP2;P2;SDS_P1;SDS_P2;PMS_P1;PMS_P2;Temp;Humidity;BMP_temperature;BMP_pressure;BME280_temperature;BME280_humidity;BME280_pressure;Samples;Min_cycle;Max_cycle;Signal;HPM_P1;HPM_P2
2022/08/07 00:01:59;;;;;;;13.25;6.00;;;26.90;91.00;;;;;;4992416;28;20047;-48
2022/08/07 00:05:04;;;;;;;9.40;5.93;;;26.80;91.50;;;;;;4992254;28;20058;-47
2022/08/07 00:08:07;;;;;;;10.48;6.13;;;26.60;92.20;;;;;;4991949;28;20058;-48
2022/08/07 00:11:12;;;;;;;10.45;6.25;;;26.60;92.30;;;;;;4992176;28;20392;-48
2022/08/07 00:14:16;;;;;;;9.35;6.05;;;26.70;92.80;;;;;;4991757;28;20057;-48
2022/08/07 00:17:20;;;;;;;9.18;5.97;;;26.70;92.10;;;;;;4991680;28;20520;-47
2022/08/07 00:20:24;;;;;;;8.02;6.20;;;26.70;92.90;;;;;;4991643;28;20045;-50
2022/08/07 00:23:30;;;;;;;8.85;6.30;;;26.40;94.90;;;;;;4991177;28;20053;-47
2022/08/07 00:26:34;;;;;;;7.78;6.93;;;26.30;95.70;;;;;;4991445;28;20053;-47
2022/08/07 00:29:38;;;;;;;9.52;6.47;;;26.20;96.90;;;;;;4990495;28;20073;-47
2022/08/07 00:32:42;;;;;;;8.77;6.75;;;26.10;97.90;;;;;;4991140;28;20410;-48
2022/08/07 00:35:46;;;;;;;9.43;7.43;;;26.10;99.20;;;;;;4991312;28;20049;-47
2022/08/07 00:38:50;;;;;;;10.13;7.00;;;26.10;99.90;;;;;;4991319;28;20057;-47
2022/08/07 00:41:56;;;;;;;9.55;6.90;;;26.10;99.90;;;;;;5001665;28;20053;-47
2022/08/07 00:45:01;;;;;;;9.77;7.32;;;26.10;99.90;;;;;;4990744;28;20050;-47
2022/08/07 00:48:06;;;;;;;8.77;6.65;;;26.10;99.90;;;;;;4991136;28;20053;-48
2022/08/07 00:51:10;;;;;;;8.05;5.60;;;26.10;99.90;;;;;;4990541;28;20049;-48
2022/08/07 00:54:14;;;;;;;10.82;6.20;;;26.00;99.90;;;;;;4991103;28;20412;-51
2022/08/07 00:57:20;;;;;;;14.75;7.05;;;25.90;99.90;;;;;;4991159;28;20053;-48
2022/08/07 01:00:25;;;;;;;9.32;6.57;;;25.90;99.90;;;;;;4991076;28;20069;-49
2022/08/07 01:03:29;;;;;;;9.52;6.78;;;25.90;99.90;;;;;;4990468;28;20040;-48
2022/08/07 01:06:34;;;;;;;9.32;6.90;;;25.80;99.90;;;;;;4990896;28;20037;-48
2022/08/07 01:09:38;;;;;;;9.88;6.97;;;25.80;99.90;;;;;;4990611;28;20045;-48
2022/08/07 01:12:42;;;;;;;10.95;6.93;;;25.80;99.90;;;;;;4990784;28;20049;-48
2022/08/07 01:15:48;;;;;;;9.25;6.40;;;25.70;99.90;;;;;;4989960;28;20070;-49
2022/08/07 01:18:52;;;;;;;11.95;6.70;;;25.70;99.90;;;;;;4989516;28;20548;-48
2022/08/07 01:21:57;;;;;;;10.57;7.05;;;25.60;99.90;;;;;;4990727;28;20049;-48
2022/08/07 01:25:07;;;;;;;12.10;7.00;;;25.60;99.90;;;;;;4988965;28;20049;-48
2022/08/07 01:28:12;;;;;;;11.68;7.57;;;25.60;99.90;;;;;;4989476;28;20049;-47
2022/08/07 01:31:18;;;;;;;13.65;7.32;;;25.50;99.90;;;;;;4989655;28;20631;-48
2022/08/07 01:34:25;;;;;;;9.20;7.65;;;25.40;99.90;;;;;;4990205;28;20049;-47
2022/08/07 01:37:29;;;;;;;10.82;7.13;;;25.20;99.90;;;;;;4989454;28;20049;-48
2022/08/07 01:40:35;;;;;;;14.85;7.53;;;25.10;99.90;;;;;;4989486;28;20424;-48
2022/08/07 01:43:39;;;;;;;9.52;7.25;;;25.00;99.90;;;;;;5019437;23;20053;-61
2022/08/07 01:46:45;;;;;;;7.90;7.10;;;25.00;99.90;;;;;;5017232;28;20056;-59
2022/08/07 01:49:49;;;;;;;13.43;7.78;;;25.00;99.90;;;;;;5029394;28;20048;-58
2022/08/07 01:52:56;;;;;;;12.60;7.93;;;24.90;99.90;;;;;;5018668;28;20056;-59
2022/08/07 01:56:24;;;;;;;13.30;7.40;;;24.70;99.90;;;;;;5001742;28;20072;-59
2022/08/07 01:59:45;;;;;;;9.05;6.80;;;24.60;99.90;;;;;;5001919;28;20045;-61
2022/08/07 02:02:56;;;;;;;12.68;7.13;;;24.60;99.90;;;;;;5002173;28;20044;-61
2022/08/07 02:06:09;;;;;;;12.35;7.93;;;24.60;99.90;;;;;;5001876;28;20056;-60
2022/08/07 02:09:16;;;;;;;10.80;7.10;;;24.60;99.90;;;;;;5001438;28;20106;-59
2022/08/07 02:12:23;;;;;;;11.70;7.10;;;24.40;99.90;;;;;;5001993;28;20045;-59
2022/08/07 02:15:30;;;;;;;9.85;7.13;;;24.30;99.90;;;;;;5001646;28;20053;-59
2022/08/07 02:18:37;;;;;;;17.90;6.65;;;24.50;99.90;;;;;;5013781;28;20049;-59
2022/08/07 02:21:42;;;;;;;12.40;6.90;;;24.50;99.90;;;;;;5013954;28;20409;-59
2022/08/07 02:24:48;;;;;;;8.63;7.10;;;24.40;99.90;;;;;;5013338;28;20049;-60
2022/08/07 02:27:53;;;;;;;18.23;7.38;;;24.50;99.90;;;;;;5013756;28;20048;-59
2022/08/07 02:31:01;;;;;;;10.30;6.82;;;24.60;99.90;;;;;;5001208;28;20527;-60
2022/08/07 02:34:06;;;;;;;10.48;6.80;;;24.50;99.90;;;;;;5012990;28;20048;-59
2022/08/07 02:37:17;;;;;;;14.02;7.03;;;24.50;99.90;;;;;;5001395;28;20048;-60
2022/08/07 02:40:21;;;;;;;9.07;6.90;;;24.50;99.90;;;;;;5012923;28;20053;-61
2022/08/07 02:43:26;;;;;;;10.10;7.20;;;24.50;99.90;;;;;;5012728;28;20048;-60
2022/08/07 02:46:32;;;;;;;9.77;7.55;;;24.60;99.90;;;;;;5000682;28;20044;-60
2022/08/07 02:49:37;;;;;;;8.00;7.20;;;24.60;99.90;;;;;;5000808;28;20045;-60
2022/08/07 02:52:42;;;;;;;12.82;7.55;;;24.70;99.90;;;;;;5000810;28;20057;-60
2022/08/07 02:55:49;;;;;;;9.73;7.25;;;24.70;99.90;;;;;;5000806;28;20084;-61
2022/08/07 02:58:53;;;;;;;15.70;7.30;;;24.60;99.90;;;;;;5000531;28;20508;-59
2022/08/07 03:01:59;;;;;;;8.77;6.45;;;24.70;99.90;;;;;;5001014;28;20044;-60
2022/08/07 03:05:05;;;;;;;7.47;6.60;;;24.70;99.90;;;;;;5000416;28;20409;-59
2022/08/07 03:08:11;;;;;;;10.73;7.20;;;24.60;99.90;;;;;;5002289;28;20049;-61
2022/08/07 03:11:20;;;;;;;9.15;7.55;;;24.50;99.90;;;;;;5000448;28;20041;-59
2022/08/07 03:14:26;;;;;;;13.95;7.47;;;24.50;99.90;;;;;;5000053;28;20053;-61
2022/08/07 03:17:31;;;;;;;14.50;7.13;;;24.50;99.90;;;;;;5000152;28;20065;-60
2022/08/07 03:20:38;;;;;;;9.18;7.07;;;24.50;99.90;;;;;;4999991;28;20065;-59
2022/08/07 03:28:12;;;;;;;11.82;7.00;;;24.30;99.90;;;;;;5012306;28;20050;-60
2022/08/07 03:31:20;;;;;;;10.85;7.90;;;24.20;99.90;;;;;;5011967;28;20475;-59
2022/08/07 03:34:30;;;;;;;9.55;7.38;;;24.10;99.90;;;;;;5011792;28;20044;-59
2022/08/07 03:37:37;;;;;;;12.68;8.82;;;24.00;99.90;;;;;;5000358;28;20248;-59
2022/08/07 03:40:42;;;;;;;18.42;9.10;;;23.80;99.90;;;;;;4999683;28;20040;-59
2022/08/07 03:43:50;;;;;;;16.00;8.52;;;23.70;99.90;;;;;;4999667;28;20068;-60
2022/08/07 03:46:54;;;;;;;12.32;8.65;;;23.70;99.90;;;;;;5012262;28;20397;-59
2022/08/07 03:49:58;;;;;;;14.35;8.13;;;23.80;99.90;;;;;;4999955;28;20401;-59
2022/08/07 03:53:08;;;;;;;13.57;8.25;;;23.80;99.90;;;;;;4999862;28;20045;-59
2022/08/07 03:56:19;;;;;;;14.65;8.85;;;23.90;99.90;;;;;;5000006;28;20401;-60
2022/08/07 03:59:25;;;;;;;10.70;8.32;;;23.90;99.90;;;;;;5011971;28;20057;-59
2022/08/07 04:02:30;;;;;;;17.83;9.23;;;23.80;99.90;;;;;;4999461;28;20041;-60
2022/08/07 04:05:36;;;;;;;14.85;8.50;;;23.70;99.90;;;;;;4999350;28;20057;-60
2022/08/07 04:08:40;;;;;;;11.05;8.45;;;23.60;99.90;;;;;;5011562;28;20045;-60
2022/08/07 04:11:45;;;;;;;10.50;8.20;;;23.60;99.90;;;;;;4999532;28;20040;-59
2022/08/07 04:14:49;;;;;;;13.63;9.05;;;23.60;99.90;;;;;;4999589;28;20117;-58
2022/08/07 04:17:55;;;;;;;10.90;7.97;;;23.60;99.90;;;;;;4999840;28;20049;-60
2022/08/07 04:21:00;;;;;;;12.90;8.10;;;23.60;99.90;;;;;;4999371;28;20041;-59
2022/08/07 04:24:09;;;;;;;11.27;7.95;;;23.50;99.90;;;;;;4998851;28;20366;-58
2022/08/07 04:27:15;;;;;;;15.70;9.23;;;23.50;99.90;;;;;;4999355;28;20053;-59
2022/08/07 04:30:19;;;;;;;23.23;8.20;;;23.60;99.90;;;;;;4999211;28;20045;-59
2022/08/07 04:33:38;;;;;;;13.18;8.18;;;23.60;99.90;;;;;;4998564;28;20507;-60
2022/08/07 04:36:43;;;;;;;17.70;8.10;;;23.70;99.90;;;;;;4998962;28;20053;-59
2022/08/07 04:39:47;;;;;;;14.65;8.50;;;23.70;99.90;;;;;;4998801;28;20049;-58
2022/08/07 04:42:51;;;;;;;19.73;8.77;;;23.60;99.90;;;;;;4998446;28;20045;-60
2022/08/07 04:46:10;;;;;;;12.75;8.15;;;23.60;99.90;;;;;;5010637;28;20408;-57
2022/08/07 04:49:34;;;;;;;11.38;7.50;;;23.70;99.90;;;;;;4998665;28;20049;-60
2022/08/07 04:53:09;;;;;;;18.15;8.07;;;23.80;99.90;;;;;;4998340;28;20045;-61
2022/08/07 04:56:54;;;;;;;21.63;8.43;;;24.00;99.90;;;;;;4998697;28;20519;-60
2022/08/07 05:00:11;;;;;;;15.52;8.73;;;24.20;99.90;;;;;;5010496;28;20048;-60
2022/08/07 05:03:42;;;;;;;22.90;9.50;;;24.30;99.90;;;;;;5009966;28;20041;-61
2022/08/07 05:07:12;;;;;;;13.98;7.97;;;24.30;99.90;;;;;;4998728;28;20401;-61
2022/08/07 05:10:27;;;;;;;16.23;8.18;;;24.70;99.90;;;;;;4998189;28;20041;-60
2022/08/07 05:13:37;;;;;;;15.02;7.25;;;27.20;99.90;;;;;;4997793;28;20045;-61
2022/08/07 05:16:46;;;;;;;11.82;7.00;;;28.40;99.90;;;;;;4998050;28;20061;-60
2022/08/07 05:19:53;;;;;;;15.93;7.10;;;29.50;99.90;;;;;;4997749;28;20048;-60
2022/08/07 05:23:04;;;;;;;12.93;6.38;;;30.80;99.90;;;;;;4997617;28;20076;-60
2022/08/07 05:26:30;;;;;;;12.50;6.20;;;31.70;99.70;;;;;;4997860;28;20045;-60
2022/08/07 05:29:42;;;;;;;14.27;7.32;;;32.20;98.00;;;;;;4998060;28;20088;-61
2022/08/07 05:32:49;;;;;;;10.57;6.70;;;32.00;98.00;;;;;;4997476;28;20512;-59
2022/08/07 05:35:55;;;;;;;9.60;6.18;;;31.80;98.00;;;;;;4998192;28;20372;-61
2022/08/07 05:39:00;;;;;;;12.10;6.10;;;33.20;96.50;;;;;;4998086;28;20060;-61
2022/08/07 05:42:05;;;;;;;10.82;6.30;;;33.70;95.10;;;;;;4997656;28;20057;-61
2022/08/07 05:45:13;;;;;;;7.43;5.22;;;34.10;94.40;;;;;;4997423;28;20500;-61
2022/08/07 05:48:18;;;;;;;7.68;5.10;;;35.10;93.00;;;;;;4998060;28;20045;-60
2022/08/07 05:51:23;;;;;;;13.13;5.97;;;36.10;91.30;;;;;;4997659;28;20504;-60
2022/08/07 05:54:27;;;;;;;7.85;5.07;;;36.40;90.30;;;;;;4997354;28;20061;-61
2022/08/07 05:57:34;;;;;;;10.70;4.85;;;36.30;89.70;;;;;;4997721;28;20053;-60
2022/08/07 06:00:39;;;;;;;7.53;5.10;;;36.40;88.70;;;;;;4997640;28;20068;-60
2022/08/07 06:03:53;;;;;;;11.20;5.47;;;36.00;88.40;;;;;;4997304;28;20045;-61
2022/08/07 06:07:02;;;;;;;7.40;5.10;;;35.70;87.90;;;;;;4997594;28;20049;-61
2022/08/07 06:10:09;;;;;;;7.40;4.90;;;35.20;88.60;;;;;;4997427;28;20049;-61
2022/08/07 06:13:13;;;;;;;7.40;5.10;;;35.00;88.40;;;;;;4997010;28;20041;-60
2022/08/07 06:16:22;;;;;;;14.40;5.20;;;34.90;88.40;;;;;;4997673;28;20346;-60
2022/08/07 06:19:27;;;;;;;7.20;5.10;;;34.60;88.40;;;;;;4997661;28;20052;-61
2022/08/07 06:22:32;;;;;;;7.28;5.00;;;34.70;88.10;;;;;;4997681;28;20052;-60
2022/08/07 06:25:50;;;;;;;6.95;4.95;;;34.70;87.80;;;;;;4997722;28;20044;-61
2022/08/07 06:28:58;;;;;;;8.32;5.25;;;34.90;86.90;;;;;;4997957;28;20049;-61
2022/08/07 06:32:03;;;;;;;7.28;5.30;;;35.50;86.20;;;;;;4997120;28;20096;-61
2022/08/07 06:35:07;;;;;;;8.93;5.00;;;34.60;86.80;;;;;;4997476;28;20045;-61
2022/08/07 06:38:11;;;;;;;11.68;5.13;;;35.10;87.10;;;;;;4997657;28;20056;-61
2022/08/07 06:41:44;;;;;;;7.20;4.43;;;35.80;86.20;;;;;;5001381;28;20056;-61
2022/08/07 06:44:50;;;;;;;8.98;4.40;;;36.80;83.90;;;;;;5000163;28;20045;-60
2022/08/07 06:47:55;;;;;;;11.48;4.22;;;36.80;82.60;;;;;;5000793;28;20384;-61
2022/08/07 06:51:04;;;;;;;6.50;3.88;;;36.60;82.70;;;;;;5013145;28;20412;-62
2022/08/07 06:54:10;;;;;;;5.55;4.05;;;37.30;81.80;;;;;;5000428;28;20045;-62
2022/08/07 06:57:15;;;;;;;7.85;3.80;;;38.10;80.10;;;;;;5000796;28;20041;-61
2022/08/07 07:00:20;;;;;;;9.27;4.05;;;38.60;78.80;;;;;;5000605;28;20045;-61
2022/08/07 07:03:26;;;;;;;7.32;3.80;;;39.10;77.60;;;;;;4999917;28;20405;-62
2022/08/07 07:06:31;;;;;;;4.75;3.20;;;39.80;75.90;;;;;;5000350;28;20041;-60
2022/08/07 07:09:37;;;;;;;6.57;4.10;;;40.30;74.40;;;;;;5012778;28;20397;-60
2022/08/07 07:12:53;;;;;;;7.10;3.60;;;40.20;72.40;;;;;;5012450;28;20045;-62
2022/08/07 07:16:03;;;;;;;8.65;3.42;;;39.20;73.60;;;;;;5012317;28;20056;-59
2022/08/07 07:19:10;;;;;;;8.25;3.67;;;39.50;72.90;;;;;;5012548;28;20432;-62
2022/08/07 07:22:16;;;;;;;9.02;3.50;;;40.00;71.90;;;;;;5012403;28;20061;-61
2022/08/07 07:25:21;;;;;;;4.80;3.65;;;39.70;71.20;;;;;;5011965;28;20045;-62
2022/08/07 07:28:33;;;;;;;6.80;3.63;;;39.10;72.50;;;;;;5000003;28;20040;-61
2022/08/07 07:31:44;;;;;;;11.55;4.20;;;39.40;72.20;;;;;;5012131;28;20044;-61
2022/08/07 07:34:56;;;;;;;7.13;4.03;;;39.20;71.40;;;;;;5011437;28;20045;-62
2022/08/07 07:38:02;;;;;;;6.72;3.42;;;39.50;71.80;;;;;;5011954;28;20049;-62
2022/08/07 07:41:08;;;;;;;5.72;3.40;;;39.80;71.80;;;;;;5011967;28;20406;-62
2022/08/07 07:44:23;;;;;;;7.18;3.25;;;39.10;72.70;;;;;;5022972;22;20428;-93
2022/08/07 07:47:29;;;;;;;6.20;2.90;;;40.30;71.70;;;;;;5010110;28;20060;-52
2022/08/07 07:50:33;;;;;;;6.72;3.22;;;41.50;70.10;;;;;;5011066;28;20049;-51
2022/08/07 07:53:42;;;;;;;6.70;3.55;;;40.80;70.00;;;;;;5011605;28;20532;-50
2022/08/07 07:56:48;;;;;;;7.97;2.95;;;40.50;70.30;;;;;;4992584;28;20053;-51
2022/08/07 07:59:53;;;;;;;4.53;2.72;;;41.80;69.10;;;;;;4992458;28;20052;-53
2022/08/07 08:03:09;;;;;;;6.70;2.83;;;43.00;67.40;;;;;;4991958;28;20061;-50
2022/08/07 08:06:13;;;;;;;5.00;2.67;;;43.50;65.80;;;;;;4991997;28;20053;-51
2022/08/07 08:09:19;;;;;;;9.10;2.70;;;43.80;65.40;;;;;;4992276;28;20042;-51
2022/08/07 08:12:24;;;;;;;6.57;2.33;;;44.30;64.50;;;;;;4991813;28;20053;-50
2022/08/07 08:15:32;;;;;;;4.22;3.00;;;44.10;63.30;;;;;;4991621;28;20053;-51
2022/08/07 08:18:36;;;;;;;5.32;2.60;;;42.30;65.10;;;;;;4992035;28;20045;-53
2022/08/07 08:28:36;;;;;;;3.83;2.50;;;46.50;60.60;;;;;;4991826;28;20532;-54
2022/08/07 08:31:40;;;;;;;9.25;2.40;;;47.00;59.50;;;;;;4991083;28;20041;-55
2022/08/07 08:34:47;;;;;;;3.03;2.72;;;47.00;59.20;;;;;;4990889;28;20340;-55
2022/08/07 08:37:57;;;;;;;5.25;2.80;;;47.20;59.00;;;;;;4979520;28;20041;-50
2022/08/07 08:41:15;;;;;;;6.38;2.92;;;47.10;58.90;;;;;;4991480;28;20042;-51
2022/08/07 08:44:47;;;;;;;3.78;2.53;;;47.00;58.20;;;;;;4990878;28;20037;-54
2022/08/07 08:48:20;;;;;;;5.57;2.30;;;46.60;58.90;;;;;;4991164;28;20061;-51
2022/08/07 08:52:00;;;;;;;6.15;2.50;;;46.80;59.00;;;;;;4991347;28;20114;-51
2022/08/07 08:55:07;;;;;;;6.47;3.15;;;46.80;58.30;;;;;;4991099;28;20045;-54
2022/08/07 08:58:13;;;;;;;4.78;2.60;;;46.00;59.50;;;;;;4991258;28;20414;-54
2022/08/07 09:01:40;;;;;;;5.03;2.72;;;46.40;59.20;;;;;;4991175;28;20057;-51
2022/08/07 09:05:01;;;;;;;4.30;2.70;;;46.00;59.30;;;;;;4990407;28;20069;-55
2022/08/07 09:08:08;;;;;;;6.18;3.00;;;45.90;58.90;;;;;;4991033;28;20045;-54
2022/08/07 09:11:21;;;;;;;6.70;2.70;;;43.70;59.80;;;;;;4990608;28;20038;-55
2022/08/07 09:14:59;;;;;;;6.30;3.08;;;42.80;60.90;;;;;;4990520;28;20078;-56
2022/08/07 09:18:09;;;;;;;6.63;2.53;;;43.50;61.10;;;;;;4987731;28;20520;-56
2022/08/07 09:21:35;;;;;;;5.32;2.92;;;43.00;61.80;;;;;;4990618;28;20053;-57
2022/08/07 09:24:43;;;;;;;6.03;2.75;;;43.70;60.60;;;;;;4990346;28;20050;-51
2022/08/07 09:27:51;;;;;;;7.13;3.13;;;44.90;60.10;;;;;;4990702;28;20041;-56
2022/08/07 09:31:13;;;;;;;4.45;2.97;;;43.40;60.10;;;;;;4990352;28;20057;-57
2022/08/07 09:34:24;;;;;;;5.55;3.10;;;42.50;62.30;;;;;;4990837;28;20053;-54
2022/08/07 09:37:40;;;;;;;5.80;3.15;;;42.90;62.00;;;;;;4979221;28;20049;-52
2022/08/07 09:41:00;;;;;;;5.20;2.85;;;41.40;62.70;;;;;;4991256;28;20045;-53
2022/08/07 09:44:22;;;;;;;6.20;3.05;;;41.00;62.10;;;;;;4990407;28;20050;-57
2022/08/07 09:47:36;;;;;;;3.35;2.30;;;42.00;63.70;;;;;;4990591;28;20580;-55
2022/08/07 09:50:49;;;;;;;4.38;2.85;;;45.90;60.40;;;;;;4990302;28;20505;-56
2022/08/07 09:53:58;;;;;;;3.22;2.40;;;48.90;58.10;;;;;;4990108;28;20061;-53
2022/08/07 09:57:33;;;;;;;4.82;2.38;;;50.30;56.70;;;;;;4990109;28;20049;-56
2022/08/07 10:00:59;;;;;;;4.53;2.35;;;51.40;55.40;;;;;;4989879;28;20043;-53
2022/08/07 10:04:27;;;;;;;6.32;2.53;;;52.20;54.50;;;;;;4989753;28;20045;-54
2022/08/07 10:07:55;;;;;;;3.03;2.30;;;50.10;55.00;;;;;;4989983;28;20061;-57
2022/08/07 10:11:29;;;;;;;3.25;2.20;;;50.90;55.00;;;;;;4990495;28;20054;-53
2022/08/07 10:15:11;;;;;;;4.28;2.58;;;50.10;55.10;;;;;;4992063;28;20050;-53
2022/08/07 10:18:57;;;;;;;2.88;2.53;;;45.00;57.60;;;;;;4994035;28;20350;-53
2022/08/07 10:22:43;;;;;;;4.35;3.08;;;43.70;60.00;;;;;;4994047;28;20413;-53
2022/08/07 10:26:22;;;;;;;3.83;2.85;;;43.40;59.70;;;;;;4993442;28;20054;-52
2022/08/07 10:29:40;;;;;;;4.57;2.97;;;42.50;60.80;;;;;;4994031;28;20046;-52
2022/08/07 10:33:09;;;;;;;5.60;3.30;;;42.90;61.30;;;;;;4993897;28;20045;-52
2022/08/07 10:36:32;;;;;;;5.18;3.55;;;40.50;62.50;;;;;;4993405;28;20057;-53
2022/08/07 10:39:52;;;;;;;6.32;3.80;;;38.60;65.60;;;;;;4993535;28;20041;-52
2022/08/07 10:43:00;;;;;;;6.70;3.63;;;37.90;66.30;;;;;;4993596;28;20417;-52
2022/08/07 10:46:16;;;;;;;6.57;3.20;;;40.50;63.90;;;;;;4992653;28;20448;-53
2022/08/07 10:49:55;;;;;;;4.32;3.05;;;43.90;60.90;;;;;;4993805;28;20413;-56
2022/08/07 10:53:10;;;;;;;3.83;3.05;;;44.40;59.60;;;;;;4994465;28;20077;-52
2022/08/07 10:56:35;;;;;;;5.07;2.60;;;45.40;57.60;;;;;;4993070;28;20114;-53
2022/08/07 11:00:04;;;;;;;6.45;2.53;;;46.70;57.20;;;;;;4993689;28;20053;-52
2022/08/07 11:03:22;;;;;;;5.40;2.97;;;46.60;56.80;;;;;;4993149;28;20054;-55
2022/08/07 11:06:46;;;;;;;4.50;3.70;;;41.70;59.70;;;;;;4992903;28;20049;-51
2022/08/07 11:09:57;;;;;;;4.55;3.25;;;38.20;65.00;;;;;;4993625;28;20046;-52
2022/08/07 11:13:14;;;;;;;5.68;3.33;;;40.00;63.70;;;;;;4992256;28;20046;-52
2022/08/07 11:16:56;;;;;;;6.30;2.97;;;43.10;60.40;;;;;;4992658;28;20041;-53
2022/08/07 11:20:46;;;;;;;3.67;2.60;;;44.40;59.20;;;;;;4971567;28;20166;-53
2022/08/07 11:24:01;;;;;;;5.07;2.80;;;46.30;57.70;;;;;;4993622;28;20045;-52
2022/08/07 11:27:32;;;;;;;7.05;2.80;;;45.50;57.60;;;;;;4991603;28;20046;-53
2022/08/07 11:31:03;;;;;;;3.00;2.70;;;44.60;58.30;;;;;;4992801;28;20045;-56
2022/08/07 11:34:37;;;;;;;5.50;3.58;;;45.10;57.70;;;;;;4992120;28;20069;-53
2022/08/07 11:38:12;;;;;;;6.57;3.70;;;40.70;60.20;;;;;;4992457;28;20049;-52
2022/08/07 11:41:22;;;;;;;4.68;3.20;;;40.90;62.30;;;;;;4992558;28;20437;-54
2022/08/07 11:44:31;;;;;;;5.40;4.13;;;42.70;59.80;;;;;;4991991;28;20045;-52
2022/08/07 11:47:55;;;;;;;5.30;2.92;;;43.30;59.60;;;;;;4992276;28;20527;-54
2022/08/07 11:51:24;;;;;;;5.25;3.20;;;44.30;58.80;;;;;;4991996;28;20516;-52
2022/08/07 11:55:07;;;;;;;5.40;3.33;;;44.00;58.90;;;;;;4992433;28;20065;-53
2022/08/07 11:58:33;;;;;;;6.72;3.22;;;43.10;59.20;;;;;;4991723;28;20461;-55
2022/08/07 12:02:04;;;;;;;7.15;3.00;;;43.10;59.60;;;;;;4980190;28;20089;-52
2022/08/07 12:05:31;;;;;;;;;;;45.80;58.00;;;;;;4987214;28;20070;-51
2022/08/07 12:09:03;;;;;;;3.30;2.70;;;48.30;55.60;;;;;;4982861;28;19917;-52
2022/08/07 12:12:29;;;;;;;5.78;2.75;;;48.00;55.00;;;;;;4992211;28;20049;-56
2022/08/07 12:15:43;;;;;;;4.35;2.80;;;47.70;55.50;;;;;;4992311;28;20424;-56
2022/08/07 12:19:00;;;;;;;5.95;3.00;;;46.70;55.20;;;;;;4992052;28;20053;-56
2022/08/07 12:22:13;;;;;;;8.05;3.03;;;44.90;56.40;;;;;;4992160;28;20517;-56
2022/08/07 12:25:51;;;;;;;6.25;3.63;;;43.60;57.40;;;;;;4990852;28;20041;-56
2022/08/07 12:29:09;;;;;;;7.38;3.17;;;42.30;58.70;;;;;;4991485;28;20426;-55
2022/08/07 12:32:29;;;;;;;5.05;3.03;;;41.00;59.60;;;;;;4991035;28;20037;-55
2022/08/07 12:35:34;;;;;;;6.95;3.55;;;39.80;61.00;;;;;;4990981;28;20049;-56
2022/08/07 12:38:40;;;;;;;8.25;3.95;;;38.90;61.80;;;;;;4979111;28;20061;-56
2022/08/07 12:41:45;;;;;;;8.93;4.10;;;37.70;63.00;;;;;;4991314;28;20041;-53
2022/08/07 12:44:50;;;;;;;17.90;4.85;;;36.60;64.60;;;;;;4991183;28;20057;-55
2022/08/07 12:48:02;;;;;;;5.97;4.40;;;35.50;66.20;;;;;;4991228;28;20056;-55
2022/08/07 12:51:15;;;;;;;39.28;5.68;;;34.90;67.10;;;;;;4991278;28;20049;-55
2022/08/07 13:41:12;;;;;;;37.30;29.80;;;20.10;99.90;;;;;;5129141;27;20033;-59
2022/08/07 13:44:31;;;;;;;43.05;29.88;;;20.70;99.90;;;;;;5127786;28;20512;-54
2022/08/07 13:47:37;;;;;;;35.58;28.15;;;20.80;99.90;;;;;;5095356;22;20048;-62
2022/08/07 13:50:42;;;;;;;26.48;21.40;;;21.10;99.90;;;;;;5066926;28;20043;-61
2022/08/07 13:54:01;;;;;;;22.40;13.57;;;21.30;99.90;;;;;;5067146;28;20297;-63
2022/08/07 13:57:12;;;;;;;14.50;11.80;;;21.70;99.90;;;;;;5067032;28;20047;-63
2022/08/07 14:00:17;;;;;;;16.23;14.05;;;22.30;99.90;;;;;;5067138;28;20511;-62
2022/08/07 14:03:25;;;;;;;15.07;13.45;;;22.50;99.90;;;;;;5066940;28;20403;-60
2022/08/07 14:06:36;;;;;;;15.50;11.85;;;22.80;99.90;;;;;;5067316;28;20050;-60
2022/08/07 14:09:41;;;;;;;15.95;13.95;;;22.80;99.90;;;;;;5067125;28;20048;-62
2022/08/07 14:12:54;;;;;;;18.17;15.40;;;22.90;99.90;;;;;;5067323;28;20407;-63
2022/08/07 14:16:03;;;;;;;16.70;15.00;;;22.90;99.90;;;;;;5066730;28;20047;-60
2022/08/07 14:19:36;;;;;;;15.57;12.65;;;22.80;99.90;;;;;;5066286;28;20028;-60
2022/08/07 14:22:44;;;;;;;16.90;13.25;;;22.80;99.90;;;;;;5066487;28;20048;-61
2022/08/07 14:26:04;;;;;;;18.02;13.18;;;22.90;99.90;;;;;;5066579;28;20048;-60
2022/08/07 14:29:11;;;;;;;16.35;12.48;;;23.00;99.90;;;;;;5064887;28;20043;-60
2022/08/07 14:32:17;;;;;;;18.10;13.15;;;23.10;99.90;;;;;;5066360;28;20506;-58
2022/08/07 14:35:28;;;;;;;12.18;10.95;;;23.20;99.90;;;;;;5066105;28;20060;-62
2022/08/07 14:38:33;;;;;;;12.65;11.45;;;23.30;99.90;;;;;;5066108;28;20419;-62
2022/08/07 14:41:38;;;;;;;12.23;11.05;;;23.40;99.90;;;;;;5053570;28;20048;-60
2022/08/07 14:44:48;;;;;;;10.38;9.30;;;23.50;99.90;;;;;;5052877;28;20040;-60
2022/08/07 14:47:55;;;;;;;10.00;8.45;;;23.50;99.90;;;;;;5052412;28;20519;-63
2022/08/07 14:51:06;;;;;;;12.23;8.20;;;23.70;99.90;;;;;;5052833;28;20048;-61
2022/08/07 14:54:16;;;;;;;12.85;8.13;;;23.80;99.90;;;;;;5052338;28;20059;-60
2022/08/07 14:57:23;;;;;;;14.63;9.82;;;23.70;99.90;;;;;;5052420;28;20047;-59
2022/08/07 15:00:33;;;;;;;10.85;9.07;;;23.50;99.90;;;;;;5052635;28;20040;-61
2022/08/07 15:03:40;;;;;;;9.60;8.27;;;23.40;99.90;;;;;;5052322;28;20051;-62
2022/08/07 15:06:46;;;;;;;10.13;9.13;;;23.50;99.90;;;;;;5052474;28;20041;-61
2022/08/07 15:09:53;;;;;;;11.07;8.70;;;23.60;99.90;;;;;;5052032;28;20036;-61
2022/08/07 15:13:00;;;;;;;10.23;9.15;;;23.60;99.90;;;;;;5052341;28;20052;-60
2022/08/07 15:16:07;;;;;;;13.80;12.20;;;23.60;99.90;;;;;;5052713;28;20032;-61
2022/08/07 15:19:17;;;;;;;18.63;12.45;;;22.70;99.90;;;;;;5052471;28;20047;-59
2022/08/07 15:22:28;;;;;;;12.43;10.27;;;22.10;99.90;;;;;;5052666;28;20510;-60
2022/08/07 15:25:43;;;;;;;15.63;12.70;;;22.00;99.90;;;;;;5052572;28;20535;-61
2022/08/07 15:28:52;;;;;;;16.38;11.63;;;22.10;99.90;;;;;;5052027;28;20047;-61
2022/08/07 15:32:01;;;;;;;12.77;10.38;;;22.10;99.90;;;;;;5052285;28;20534;-61
2022/08/07 15:35:13;;;;;;;17.10;11.85;;;22.20;99.90;;;;;;5051838;28;20502;-62
2022/08/07 15:38:23;;;;;;;16.98;11.45;;;22.40;99.90;;;;;;5051608;28;20514;-60
2022/08/07 15:41:29;;;;;;;14.20;11.43;;;22.50;99.90;;;;;;5051979;28;20036;-58
2022/08/07 15:44:48;;;;;;;11.25;10.13;;;22.50;99.90;;;;;;5051613;28;20040;-61
2022/08/07 15:48:11;;;;;;;10.45;8.98;;;22.70;99.90;;;;;;5051503;28;20048;-60
2022/08/07 15:51:19;;;;;;;11.52;9.20;;;22.90;99.90;;;;;;5051468;28;20056;-60
2022/08/07 15:54:34;;;;;;;9.90;8.90;;;23.10;99.90;;;;;;5051408;28;20044;-60
2022/08/07 15:57:44;;;;;;;9.90;8.95;;;23.30;99.90;;;;;;5051523;28;20381;-60
2022/08/07 16:00:49;;;;;;;10.27;9.27;;;23.40;99.90;;;;;;5051486;28;20384;-59
2022/08/07 16:04:02;;;;;;;13.05;9.60;;;23.70;99.90;;;;;;5051010;28;20069;-61
2022/08/07 16:07:11;;;;;;;9.98;8.85;;;23.90;99.90;;;;;;5051253;28;20278;-61
2022/08/07 16:10:20;;;;;;;10.95;9.32;;;24.10;99.90;;;;;;5050642;28;20033;-60
2022/08/07 16:13:36;;;;;;;10.70;9.60;;;24.30;99.90;;;;;;5051115;28;20523;-60
2022/08/07 16:16:54;;;;;;;9.93;8.20;;;24.60;99.90;;;;;;5050978;28;20503;-61
2022/08/07 16:20:06;;;;;;;12.60;8.23;;;24.90;99.90;;;;;;5051072;28;20048;-60
2022/08/07 16:23:25;;;;;;;10.38;8.45;;;25.20;99.90;;;;;;5051143;28;20044;-61
2022/08/07 16:26:54;;;;;;;10.73;7.65;;;25.40;99.90;;;;;;5051371;28;20407;-61
2022/08/07 16:30:08;;;;;;;8.52;7.60;;;25.70;99.90;;;;;;5049971;28;20044;-59
2022/08/07 16:33:14;;;;;;;9.98;7.38;;;25.90;99.90;;;;;;5050734;28;20243;-61
2022/08/07 16:36:25;;;;;;;9.20;8.20;;;26.30;99.90;;;;;;5050936;28;20029;-61
2022/08/07 16:39:56;;;;;;;9.35;7.60;;;26.60;99.90;;;;;;5050412;28;20048;-60
2022/08/07 16:43:11;;;;;;;8.02;7.00;;;27.00;99.90;;;;;;5050900;28;20044;-61
2022/08/07 16:47:04;;;;;;;10.85;6.70;;;27.30;99.90;;;;;;5050473;28;20049;-61
2022/08/07 16:50:26;;;;;;;9.32;6.65;;;27.50;99.90;;;;;;5050021;28;20036;-62
2022/08/07 16:53:41;;;;;;;8.00;6.55;;;27.60;99.90;;;;;;5050590;28;20037;-58
2022/08/07 16:57:11;;;;;;;8.60;6.75;;;27.80;99.90;;;;;;5050638;28;20044;-60
2022/08/07 17:00:17;;;;;;;7.95;6.85;;;27.90;99.90;;;;;;5050214;28;20409;-59
2022/08/07 17:03:54;;;;;;;9.32;6.38;;;28.10;99.90;;;;;;5049452;28;20048;-59
2022/08/07 17:07:45;;;;;;;7.20;6.43;;;28.10;99.90;;;;;;5039963;28;20518;-61
2022/08/07 17:10:55;;;;;;;8.65;6.38;;;28.00;99.90;;;;;;5049597;28;20052;-61
2022/08/07 17:14:36;;;;;;;8.45;6.30;;;27.70;99.90;;;;;;5050056;28;20033;-60
2022/08/07 17:17:46;;;;;;;7.50;5.80;;;27.40;99.90;;;;;;5050255;28;20037;-61
2022/08/07 17:20:51;;;;;;;7.82;6.93;;;26.90;99.90;;;;;;5049910;28;20044;-61
2022/08/07 17:24:16;;;;;;;9.57;7.53;;;26.00;99.90;;;;;;5050194;28;20037;-61
2022/08/07 17:27:32;;;;;;;9.23;7.40;;;25.40;99.90;;;;;;5050477;28;20033;-61
2022/08/07 17:30:48;;;;;;;9.82;7.82;;;25.30;99.90;;;;;;5049545;28;20037;-61
2022/08/07 17:34:10;;;;;;;9.23;7.47;;;25.30;99.90;;;;;;5049833;28;20040;-61
2022/08/07 17:37:28;;;;;;;9.18;6.53;;;25.50;99.90;;;;;;5050103;28;20045;-61